sensor_id;sensor_type;location;lat;lon;timestamp;temperature;humidity
9446;DHT22;4761;49.490;10.908;2022-11-15T00:00:17;17.00;45.60
9446;DHT22;4761;49.490;10.908;2022-11-15T00:02:42;17.00;45.60
9446;DHT22;4761;49.490;10.908;2022-11-15T00:05:08;17.00;45.60
9446;DHT22;4761;49.490;10.908;2022-11-15T00:07:33;17.00;45.60
9446;DHT22;4761;49.490;10.908;2022-11-15T00:09:59;17.00;45.50
9446;DHT22;4761;49.490;10.908;2022-11-15T00:12:24;17.00;45.50
9446;DHT22;4761;49.490;10.908;2022-11-15T00:14:51;17.00;45.60
9446;DHT22;4761;49.490;10.908;2022-11-15T00:17:17;17.00;46.20
9446;DHT22;4761;49.490;10.908;2022-11-15T00:19:42;17.00;45.60
9446;DHT22;4761;49.490;10.908;2022-11-15T00:22:08;17.00;45.50
9446;DHT22;4761;49.490;10.908;2022-11-15T00:24:33;17.00;45.40
9446;DHT22;4761;49.490;10.908;2022-11-15T00:26:59;17.00;45.40
9446;DHT22;4761;49.490;10.908;2022-11-15T00:29:25;16.90;45.30
9446;DHT22;4761;49.490;10.908;2022-11-15T00:31:50;16.90;45.20
9446;DHT22;4761;49.490;10.908;2022-11-15T00:34:16;16.90;45.20
9446;DHT22;4761;49.490;10.908;2022-11-15T00:36:41;16.90;45.30
9446;DHT22;4761;49.490;10.908;2022-11-15T00:39:07;16.90;45.30
9446;DHT22;4761;49.490;10.908;2022-11-15T00:41:32;16.90;45.30
9446;DHT22;4761;49.490;10.908;2022-11-15T00:43:58;16.90;45.20
9446;DHT22;4761;49.490;10.908;2022-11-15T00:46:23;16.90;45.20
9446;DHT22;4761;49.490;10.908;2022-11-15T00:48:49;16.90;45.20
9446;DHT22;4761;49.490;10.908;2022-11-15T00:51:14;16.90;45.20
9446;DHT22;4761;49.490;10.908;2022-11-15T00:53:40;16.90;45.20
9446;DHT22;4761;49.490;10.908;2022-11-15T00:56:05;16.90;45.20
9446;DHT22;4761;49.490;10.908;2022-11-15T00:58:31;16.90;45.20
9446;DHT22;4761;49.490;10.908;2022-11-15T01:01:05;16.90;45.30
9446;DHT22;4761;49.490;10.908;2022-11-15T01:03:33;16.90;45.30
9446;DHT22;4761;49.490;10.908;2022-11-15T01:06:00;16.90;45.30
9446;DHT22;4761;49.490;10.908;2022-11-15T01:08:25;16.90;45.40
9446;DHT22;4761;49.490;10.908;2022-11-15T01:10:51;16.90;45.40
9446;DHT22;4761;49.490;10.908;2022-11-15T01:13:16;16.90;45.50
9446;DHT22;4761;49.490;10.908;2022-11-15T01:15:42;17.00;45.60
9446;DHT22;4761;49.490;10.908;2022-11-15T01:18:08;17.00;45.50
9446;DHT22;4761;49.490;10.908;2022-11-15T01:20:34;17.00;45.40
9446;DHT22;4761;49.490;10.908;2022-11-15T01:22:59;17.10;45.40
9446;DHT22;4761;49.490;10.908;2022-11-15T01:25:25;17.10;45.40
9446;DHT22;4761;49.490;10.908;2022-11-15T01:27:50;17.10;45.20
9446;DHT22;4761;49.490;10.908;2022-11-15T01:30:16;17.10;45.20
9446;DHT22;4761;49.490;10.908;2022-11-15T01:32:41;17.10;45.10
9446;DHT22;4761;49.490;10.908;2022-11-15T01:35:07;17.10;45.10
9446;DHT22;4761;49.490;10.908;2022-11-15T01:37:33;17.10;45.10
9446;DHT22;4761;49.490;10.908;2022-11-15T01:39:58;17.10;45.10
9446;DHT22;4761;49.490;10.908;2022-11-15T01:42:24;17.00;45.10
9446;DHT22;4761;49.490;10.908;2022-11-15T01:44:51;17.00;45.10
9446;DHT22;4761;49.490;10.908;2022-11-15T01:47:29;17.00;45.20
9446;DHT22;4761;49.490;10.908;2022-11-15T01:50:08;17.00;45.20
9446;DHT22;4761;49.490;10.908;2022-11-15T01:52:35;17.00;45.30
9446;DHT22;4761;49.490;10.908;2022-11-15T01:55:06;17.00;45.30
9446;DHT22;4761;49.490;10.908;2022-11-15T01:57:33;17.00;45.40
9446;DHT22;4761;49.490;10.908;2022-11-15T02:00:00;17.00;45.40
9446;DHT22;4761;49.490;10.908;2022-11-15T02:02:26;17.00;45.40
9446;DHT22;4761;49.490;10.908;2022-11-15T02:04:52;17.00;45.50
9446;DHT22;4761;49.490;10.908;2022-11-15T02:07:19;17.00;45.50
9446;DHT22;4761;49.490;10.908;2022-11-15T02:09:45;17.00;45.50
9446;DHT22;4761;49.490;10.908;2022-11-15T02:12:14;17.00;45.50
9446;DHT22;4761;49.490;10.908;2022-11-15T02:14:42;17.00;45.50
9446;DHT22;4761;49.490;10.908;2022-11-15T02:22:31;17.00;45.40
9446;DHT22;4761;49.490;10.908;2022-11-15T02:25:23;17.00;45.50
9446;DHT22;4761;49.490;10.908;2022-11-15T02:30:59;16.90;45.30
9446;DHT22;4761;49.490;10.908;2022-11-15T02:36:33;16.90;45.30
9446;DHT22;4761;49.490;10.908;2022-11-15T02:42:14;16.90;45.30
9446;DHT22;4761;49.490;10.908;2022-11-15T02:45:04;16.80;45.30
9446;DHT22;4761;49.490;10.908;2022-11-15T02:47:32;16.80;45.20
9446;DHT22;4761;49.490;10.908;2022-11-15T02:50:07;16.80;45.20
9446;DHT22;4761;49.490;10.908;2022-11-15T02:52:33;16.90;45.30
9446;DHT22;4761;49.490;10.908;2022-11-15T02:55:00;16.80;45.20
9446;DHT22;4761;49.490;10.908;2022-11-15T02:57:57;16.90;45.20
9446;DHT22;4761;49.490;10.908;2022-11-15T03:00:26;16.90;45.20
9446;DHT22;4761;49.490;10.908;2022-11-15T03:03:22;16.90;45.20
9446;DHT22;4761;49.490;10.908;2022-11-15T03:05:56;16.80;45.10
9446;DHT22;4761;49.490;10.908;2022-11-15T03:08:36;16.80;45.20
9446;DHT22;4761;49.490;10.908;2022-11-15T03:11:09;16.80;45.30
9446;DHT22;4761;49.490;10.908;2022-11-15T03:13:53;16.80;45.30
9446;DHT22;4761;49.490;10.908;2022-11-15T03:16:34;16.80;45.20
9446;DHT22;4761;49.490;10.908;2022-11-15T03:19:17;16.80;45.20
9446;DHT22;4761;49.490;10.908;2022-11-15T03:21:45;16.80;45.10
9446;DHT22;4761;49.490;10.908;2022-11-15T03:24:12;16.80;45.10
9446;DHT22;4761;49.490;10.908;2022-11-15T03:26:41;16.80;45.10
9446;DHT22;4761;49.490;10.908;2022-11-15T03:29:16;16.80;45.00
9446;DHT22;4761;49.490;10.908;2022-11-15T03:31:47;16.80;44.90
9446;DHT22;4761;49.490;10.908;2022-11-15T03:34:39;16.80;44.90
9446;DHT22;4761;49.490;10.908;2022-11-15T03:37:07;16.80;44.80
9446;DHT22;4761;49.490;10.908;2022-11-15T03:39:34;16.80;44.80
9446;DHT22;4761;49.490;10.908;2022-11-15T03:42:23;16.80;44.70
9446;DHT22;4761;49.490;10.908;2022-11-15T03:45:15;16.80;44.60
9446;DHT22;4761;49.490;10.908;2022-11-15T03:47:47;16.70;44.50
9446;DHT22;4761;49.490;10.908;2022-11-15T03:50:18;16.70;44.60
9446;DHT22;4761;49.490;10.908;2022-11-15T03:52:46;16.70;44.60
9446;DHT22;4761;49.490;10.908;2022-11-15T03:55:14;16.70;44.60
9446;DHT22;4761;49.490;10.908;2022-11-15T03:57:40;16.70;44.50
9446;DHT22;4761;49.490;10.908;2022-11-15T04:00:06;16.70;44.50
9446;DHT22;4761;49.490;10.908;2022-11-15T04:02:32;16.70;44.40
9446;DHT22;4761;49.490;10.908;2022-11-15T04:04:58;16.70;44.30
9446;DHT22;4761;49.490;10.908;2022-11-15T04:07:23;16.70;44.20
9446;DHT22;4761;49.490;10.908;2022-11-15T04:09:48;16.70;44.10
9446;DHT22;4761;49.490;10.908;2022-11-15T04:15:01;16.70;44.00
9446;DHT22;4761;49.490;10.908;2022-11-15T04:17:40;16.60;43.90
9446;DHT22;4761;49.490;10.908;2022-11-15T04:20:17;16.70;44.00
9446;DHT22;4761;49.490;10.908;2022-11-15T04:23:03;16.60;43.80
9446;DHT22;4761;49.490;10.908;2022-11-15T04:25:50;16.60;43.70
9446;DHT22;4761;49.490;10.908;2022-11-15T04:28:16;16.60;44.20
9446;DHT22;4761;49.490;10.908;2022-11-15T04:30:42;16.60;43.50
9446;DHT22;4761;49.490;10.908;2022-11-15T04:33:07;16.60;43.40
9446;DHT22;4761;49.490;10.908;2022-11-15T04:35:33;16.60;43.40
9446;DHT22;4761;49.490;10.908;2022-11-15T04:37:59;16.60;43.40
9446;DHT22;4761;49.490;10.908;2022-11-15T04:40:25;16.50;43.40
9446;DHT22;4761;49.490;10.908;2022-11-15T04:42:50;16.60;43.50
9446;DHT22;4761;49.490;10.908;2022-11-15T04:45:16;16.50;43.40
9446;DHT22;4761;49.490;10.908;2022-11-15T04:47:45;16.50;43.30
9446;DHT22;4761;49.490;10.908;2022-11-15T04:50:11;16.50;43.30
9446;DHT22;4761;49.490;10.908;2022-11-15T04:52:40;16.60;43.40
9446;DHT22;4761;49.490;10.908;2022-11-15T04:55:05;16.60;43.30
9446;DHT22;4761;49.490;10.908;2022-11-15T04:57:31;16.50;43.10
9446;DHT22;4761;49.490;10.908;2022-11-15T04:59:56;16.50;43.00
9446;DHT22;4761;49.490;10.908;2022-11-15T05:02:22;16.50;43.00
9446;DHT22;4761;49.490;10.908;2022-11-15T05:04:47;16.50;43.00
9446;DHT22;4761;49.490;10.908;2022-11-15T05:07:13;16.50;42.90
9446;DHT22;4761;49.490;10.908;2022-11-15T05:09:38;16.50;42.80
9446;DHT22;4761;49.490;10.908;2022-11-15T05:12:04;16.50;42.80
9446;DHT22;4761;49.490;10.908;2022-11-15T05:14:30;16.50;42.80
9446;DHT22;4761;49.490;10.908;2022-11-15T05:16:55;16.50;42.80
9446;DHT22;4761;49.490;10.908;2022-11-15T05:19:21;16.50;42.80
9446;DHT22;4761;49.490;10.908;2022-11-15T05:21:47;16.50;42.80
9446;DHT22;4761;49.490;10.908;2022-11-15T05:24:12;16.50;42.70
9446;DHT22;4761;49.490;10.908;2022-11-15T05:26:38;16.40;42.70
9446;DHT22;4761;49.490;10.908;2022-11-15T05:29:03;16.40;42.60
9446;DHT22;4761;49.490;10.908;2022-11-15T05:31:29;16.50;43.20
9446;DHT22;4761;49.490;10.908;2022-11-15T05:33:55;16.40;42.50
9446;DHT22;4761;49.490;10.908;2022-11-15T05:36:42;16.40;42.40
9446;DHT22;4761;49.490;10.908;2022-11-15T05:39:08;16.40;42.30
9446;DHT22;4761;49.490;10.908;2022-11-15T05:41:37;16.40;42.30
9446;DHT22;4761;49.490;10.908;2022-11-15T05:44:07;16.40;42.20
9446;DHT22;4761;49.490;10.908;2022-11-15T05:46:36;16.40;42.20
9446;DHT22;4761;49.490;10.908;2022-11-15T05:49:06;16.40;42.30
9446;DHT22;4761;49.490;10.908;2022-11-15T05:51:33;16.40;43.10
9446;DHT22;4761;49.490;10.908;2022-11-15T05:54:00;16.30;42.50
9446;DHT22;4761;49.490;10.908;2022-11-15T05:56:26;16.40;42.60
9446;DHT22;4761;49.490;10.908;2022-11-15T05:58:55;16.40;42.60
9446;DHT22;4761;49.490;10.908;2022-11-15T06:01:22;16.40;42.70
9446;DHT22;4761;49.490;10.908;2022-11-15T06:03:47;16.40;42.70
9446;DHT22;4761;49.490;10.908;2022-11-15T06:06:13;16.50;42.80
9446;DHT22;4761;49.490;10.908;2022-11-15T06:08:38;16.50;42.80
9446;DHT22;4761;49.490;10.908;2022-11-15T06:11:05;16.50;42.80
9446;DHT22;4761;49.490;10.908;2022-11-15T06:13:31;16.50;42.70
9446;DHT22;4761;49.490;10.908;2022-11-15T06:15:57;16.40;42.70
9446;DHT22;4761;49.490;10.908;2022-11-15T06:18:22;16.40;42.60
9446;DHT22;4761;49.490;10.908;2022-11-15T06:20:48;16.50;42.70
9446;DHT22;4761;49.490;10.908;2022-11-15T06:23:13;16.40;42.70
9446;DHT22;4761;49.490;10.908;2022-11-15T06:25:39;16.40;42.70
9446;DHT22;4761;49.490;10.908;2022-11-15T06:28:04;16.40;42.70
9446;DHT22;4761;49.490;10.908;2022-11-15T06:30:30;16.50;42.80
9446;DHT22;4761;49.490;10.908;2022-11-15T06:33:02;16.50;42.80
9446;DHT22;4761;49.490;10.908;2022-11-15T06:35:29;16.50;42.80
9446;DHT22;4761;49.490;10.908;2022-11-15T06:37:55;16.40;42.80
9446;DHT22;4761;49.490;10.908;2022-11-15T06:40:21;16.40;42.80
9446;DHT22;4761;49.490;10.908;2022-11-15T06:42:46;16.50;42.80
9446;DHT22;4761;49.490;10.908;2022-11-15T06:45:12;16.50;42.80
9446;DHT22;4761;49.490;10.908;2022-11-15T06:47:47;16.50;42.80
9446;DHT22;4761;49.490;10.908;2022-11-15T06:50:13;16.50;42.80
9446;DHT22;4761;49.490;10.908;2022-11-15T06:52:38;16.50;43.40
9446;DHT22;4761;49.490;10.908;2022-11-15T06:55:04;16.60;42.90
9446;DHT22;4761;49.490;10.908;2022-11-15T06:57:30;16.60;42.90
9446;DHT22;4761;49.490;10.908;2022-11-15T06:59:55;16.60;42.90
9446;DHT22;4761;49.490;10.908;2022-11-15T07:02:21;16.60;42.90
9446;DHT22;4761;49.490;10.908;2022-11-15T07:04:46;16.60;43.00
9446;DHT22;4761;49.490;10.908;2022-11-15T07:07:12;16.50;43.60
9446;DHT22;4761;49.490;10.908;2022-11-15T07:09:37;16.40;43.80
9446;DHT22;4761;49.490;10.908;2022-11-15T07:12:03;16.50;44.20
9446;DHT22;4761;49.490;10.908;2022-11-15T07:14:29;16.60;44.50
9446;DHT22;4761;49.490;10.908;2022-11-15T07:16:54;16.70;44.70
9446;DHT22;4761;49.490;10.908;2022-11-15T07:19:20;16.70;44.80
9446;DHT22;4761;49.490;10.908;2022-11-15T07:21:45;16.80;44.90
9446;DHT22;4761;49.490;10.908;2022-11-15T07:24:11;16.90;44.80
9446;DHT22;4761;49.490;10.908;2022-11-15T07:26:37;17.00;44.70
9446;DHT22;4761;49.490;10.908;2022-11-15T07:29:03;17.00;44.50
9446;DHT22;4761;49.490;10.908;2022-11-15T07:31:28;17.10;44.40
9446;DHT22;4761;49.490;10.908;2022-11-15T07:33:54;17.20;44.20
9446;DHT22;4761;49.490;10.908;2022-11-15T07:36:19;17.30;44.10
9446;DHT22;4761;49.490;10.908;2022-11-15T07:38:45;17.30;44.50
9446;DHT22;4761;49.490;10.908;2022-11-15T07:41:10;17.30;43.70
9446;DHT22;4761;49.490;10.908;2022-11-15T07:43:36;17.40;43.60
9446;DHT22;4761;49.490;10.908;2022-11-15T07:46:06;17.50;43.60
9446;DHT22;4761;49.490;10.908;2022-11-15T07:48:34;17.50;43.40
9446;DHT22;4761;49.490;10.908;2022-11-15T07:51:00;17.50;43.30
9446;DHT22;4761;49.490;10.908;2022-11-15T07:53:25;17.60;43.30
9446;DHT22;4761;49.490;10.908;2022-11-15T07:55:51;17.60;43.20
9446;DHT22;4761;49.490;10.908;2022-11-15T07:58:18;17.70;43.20
9446;DHT22;4761;49.490;10.908;2022-11-15T08:00:44;17.70;43.20
9446;DHT22;4761;49.490;10.908;2022-11-15T08:03:13;17.70;43.10
9446;DHT22;4761;49.490;10.908;2022-11-15T08:05:40;17.70;43.10
9446;DHT22;4761;49.490;10.908;2022-11-15T08:08:06;17.80;43.10
9446;DHT22;4761;49.490;10.908;2022-11-15T08:10:33;17.80;43.10
9446;DHT22;4761;49.490;10.908;2022-11-15T08:15:28;17.80;43.00
9446;DHT22;4761;49.490;10.908;2022-11-15T08:17:58;17.90;43.10
9446;DHT22;4761;49.490;10.908;2022-11-15T08:20:26;17.90;43.10
9446;DHT22;4761;49.490;10.908;2022-11-15T08:22:52;17.90;43.10
9446;DHT22;4761;49.490;10.908;2022-11-15T08:25:17;17.90;43.10
9446;DHT22;4761;49.490;10.908;2022-11-15T08:27:43;17.90;43.10
9446;DHT22;4761;49.490;10.908;2022-11-15T08:30:09;18.00;43.10
9446;DHT22;4761;49.490;10.908;2022-11-15T08:32:36;18.00;43.20
9446;DHT22;4761;49.490;10.908;2022-11-15T08:35:02;17.90;43.20
9446;DHT22;4761;49.490;10.908;2022-11-15T08:37:28;18.00;43.20
9446;DHT22;4761;49.490;10.908;2022-11-15T08:39:53;18.00;43.30
9446;DHT22;4761;49.490;10.908;2022-11-15T08:42:19;18.00;43.30
9446;DHT22;4761;49.490;10.908;2022-11-15T08:44:44;18.00;43.30
9446;DHT22;4761;49.490;10.908;2022-11-15T08:47:11;18.10;43.40
9446;DHT22;4761;49.490;10.908;2022-11-15T08:49:37;18.10;43.50
9446;DHT22;4761;49.490;10.908;2022-11-15T08:52:03;18.10;43.60
9446;DHT22;4761;49.490;10.908;2022-11-15T08:54:28;18.10;43.60
9446;DHT22;4761;49.490;10.908;2022-11-15T08:56:54;18.10;43.60
9446;DHT22;4761;49.490;10.908;2022-11-15T08:59:19;18.10;43.70
9446;DHT22;4761;49.490;10.908;2022-11-15T09:01:45;18.10;43.70
9446;DHT22;4761;49.490;10.908;2022-11-15T09:04:10;18.20;43.00
9446;DHT22;4761;49.490;10.908;2022-11-15T09:06:36;18.20;42.30
9446;DHT22;4761;49.490;10.908;2022-11-15T09:09:02;18.10;42.30
9446;DHT22;4761;49.490;10.908;2022-11-15T09:11:28;18.00;42.60
9446;DHT22;4761;49.490;10.908;2022-11-15T09:13:53;17.90;43.00
9446;DHT22;4761;49.490;10.908;2022-11-15T09:16:19;17.80;43.20
9446;DHT22;4761;49.490;10.908;2022-11-15T09:18:45;17.80;43.40
9446;DHT22;4761;49.490;10.908;2022-11-15T09:21:10;17.70;43.50
9446;DHT22;4761;49.490;10.908;2022-11-15T09:23:36;17.60;43.60
9446;DHT22;4761;49.490;10.908;2022-11-15T09:26:03;17.60;43.80
9446;DHT22;4761;49.490;10.908;2022-11-15T09:28:30;17.60;44.00
9446;DHT22;4761;49.490;10.908;2022-11-15T09:31:00;17.50;44.00
9446;DHT22;4761;49.490;10.908;2022-11-15T09:33:26;17.50;44.10
9446;DHT22;4761;49.490;10.908;2022-11-15T09:35:52;17.50;44.20
9446;DHT22;4761;49.490;10.908;2022-11-15T09:38:18;17.50;44.40
9446;DHT22;4761;49.490;10.908;2022-11-15T09:40:44;17.50;44.40
9446;DHT22;4761;49.490;10.908;2022-11-15T09:48:50;17.30;45.50
9446;DHT22;4761;49.490;10.908;2022-11-15T09:51:28;17.30;45.70
9446;DHT22;4761;49.490;10.908;2022-11-15T09:56:47;17.40;45.70
9446;DHT22;4761;49.490;10.908;2022-11-15T10:02:09;17.60;45.50
9446;DHT22;4761;49.490;10.908;2022-11-15T10:04:36;17.60;45.30
9446;DHT22;4761;49.490;10.908;2022-11-15T10:07:13;17.70;45.20
9446;DHT22;4761;49.490;10.908;2022-11-15T10:09:42;17.70;45.00
9446;DHT22;4761;49.490;10.908;2022-11-15T10:12:10;17.80;45.00
9446;DHT22;4761;49.490;10.908;2022-11-15T10:14:38;17.90;44.90
9446;DHT22;4761;49.490;10.908;2022-11-15T10:20:49;18.00;44.60
9446;DHT22;4761;49.490;10.908;2022-11-15T10:23:11;18.00;44.50
9446;DHT22;4761;49.490;10.908;2022-11-15T10:25:37;18.00;44.50
9446;DHT22;4761;49.490;10.908;2022-11-15T10:28:16;18.10;44.50
9446;DHT22;4761;49.490;10.908;2022-11-15T10:30:48;18.10;44.30
9446;DHT22;4761;49.490;10.908;2022-11-15T10:35:43;18.10;44.20
9446;DHT22;4761;49.490;10.908;2022-11-15T10:38:10;18.10;44.10
9446;DHT22;4761;49.490;10.908;2022-11-15T10:40:37;18.20;44.10
9446;DHT22;4761;49.490;10.908;2022-11-15T10:45:34;18.30;44.10
9446;DHT22;4761;49.490;10.908;2022-11-15T10:50:39;18.30;44.00
9446;DHT22;4761;49.490;10.908;2022-11-15T10:55:52;18.30;44.00
9446;DHT22;4761;49.490;10.908;2022-11-15T10:58:31;18.30;44.00
9446;DHT22;4761;49.490;10.908;2022-11-15T11:03:39;18.50;43.00
9446;DHT22;4761;49.490;10.908;2022-11-15T11:06:08;18.60;42.70
9446;DHT22;4761;49.490;10.908;2022-11-15T11:08:35;18.50;42.50
9446;DHT22;4761;49.490;10.908;2022-11-15T11:11:02;18.50;42.80
9446;DHT22;4761;49.490;10.908;2022-11-15T11:13:31;18.40;43.10
9446;DHT22;4761;49.490;10.908;2022-11-15T11:16:15;18.30;43.20
9446;DHT22;4761;49.490;10.908;2022-11-15T11:18:59;18.30;43.30
9446;DHT22;4761;49.490;10.908;2022-11-15T11:21:48;18.20;43.20
9446;DHT22;4761;49.490;10.908;2022-11-15T11:27:07;18.20;43.40
9446;DHT22;4761;49.490;10.908;2022-11-15T11:29:49;18.20;43.50
9446;DHT22;4761;49.490;10.908;2022-11-15T11:32:36;18.20;43.50
9446;DHT22;4761;49.490;10.908;2022-11-15T11:35:28;18.20;43.60
9446;DHT22;4761;49.490;10.908;2022-11-15T11:38:29;18.20;43.80
9446;DHT22;4761;49.490;10.908;2022-11-15T11:46:59;18.10;43.50
9446;DHT22;4761;49.490;10.908;2022-11-15T11:49:34;18.10;43.60
9446;DHT22;4761;49.490;10.908;2022-11-15T11:52:11;18.10;43.70
9446;DHT22;4761;49.490;10.908;2022-11-15T12:00:01;18.10;43.80
9446;DHT22;4761;49.490;10.908;2022-11-15T12:02:31;18.00;43.70
9446;DHT22;4761;49.490;10.908;2022-11-15T12:05:22;18.10;43.90
9446;DHT22;4761;49.490;10.908;2022-11-15T12:07:49;18.10;44.10
9446;DHT22;4761;49.490;10.908;2022-11-15T12:10:25;18.10;44.20
9446;DHT22;4761;49.490;10.908;2022-11-15T12:13:10;18.10;44.00
9446;DHT22;4761;49.490;10.908;2022-11-15T12:16:02;18.10;44.10
9446;DHT22;4761;49.490;10.908;2022-11-15T12:18:30;18.10;44.20
9446;DHT22;4761;49.490;10.908;2022-11-15T12:21:17;18.10;44.30
9446;DHT22;4761;49.490;10.908;2022-11-15T12:23:50;18.10;44.20
9446;DHT22;4761;49.490;10.908;2022-11-15T12:26:21;18.10;44.50
9446;DHT22;4761;49.490;10.908;2022-11-15T12:28:56;18.20;45.00
9446;DHT22;4761;49.490;10.908;2022-11-15T12:31:36;18.10;45.00
9446;DHT22;4761;49.490;10.908;2022-11-15T12:36:46;18.20;45.40
9446;DHT22;4761;49.490;10.908;2022-11-15T12:39:13;18.20;45.80
9446;DHT22;4761;49.490;10.908;2022-11-15T13:02:42;18.10;45.20
9446;DHT22;4761;49.490;10.908;2022-11-15T13:22:43;18.20;46.20
9446;DHT22;4761;49.490;10.908;2022-11-15T13:30:53;18.20;46.40
9446;DHT22;4761;49.490;10.908;2022-11-15T13:33:24;18.10;46.10
9446;DHT22;4761;49.490;10.908;2022-11-15T13:35:53;18.20;46.30
9446;DHT22;4761;49.490;10.908;2022-11-15T13:40:52;18.20;46.30
9446;DHT22;4761;49.490;10.908;2022-11-15T13:46:10;18.20;46.30
9446;DHT22;4761;49.490;10.908;2022-11-15T13:48:36;18.20;46.40
9446;DHT22;4761;49.490;10.908;2022-11-15T13:53:46;18.20;46.30
9446;DHT22;4761;49.490;10.908;2022-11-15T13:56:14;18.20;46.20
9446;DHT22;4761;49.490;10.908;2022-11-15T13:58:41;18.20;46.20
9446;DHT22;4761;49.490;10.908;2022-11-15T14:01:08;18.20;46.10
9446;DHT22;4761;49.490;10.908;2022-11-15T14:03:47;18.20;46.00
9446;DHT22;4761;49.490;10.908;2022-11-15T14:06:18;18.20;45.90
9446;DHT22;4761;49.490;10.908;2022-11-15T14:11:28;18.30;45.80
9446;DHT22;4761;49.490;10.908;2022-11-15T14:16:36;18.30;45.80
9446;DHT22;4761;49.490;10.908;2022-11-15T14:19:04;18.20;45.70
9446;DHT22;4761;49.490;10.908;2022-11-15T14:21:30;18.30;45.70
9446;DHT22;4761;49.490;10.908;2022-11-15T14:24:19;18.30;45.80
9446;DHT22;4761;49.490;10.908;2022-11-15T14:26:45;18.30;45.70
9446;DHT22;4761;49.490;10.908;2022-11-15T14:29:28;18.30;45.70
9446;DHT22;4761;49.490;10.908;2022-11-15T14:32:12;18.30;46.40
9446;DHT22;4761;49.490;10.908;2022-11-15T14:34:38;18.20;45.60
9446;DHT22;4761;49.490;10.908;2022-11-15T14:37:03;18.20;45.60
9446;DHT22;4761;49.490;10.908;2022-11-15T14:39:29;18.20;45.60
9446;DHT22;4761;49.490;10.908;2022-11-15T14:41:55;18.20;45.70
9446;DHT22;4761;49.490;10.908;2022-11-15T14:44:20;18.20;45.80
9446;DHT22;4761;49.490;10.908;2022-11-15T14:46:47;18.20;45.70
9446;DHT22;4761;49.490;10.908;2022-11-15T14:49:13;18.10;45.70
9446;DHT22;4761;49.490;10.908;2022-11-15T14:51:40;18.10;45.70
9446;DHT22;4761;49.490;10.908;2022-11-15T14:54:09;18.10;45.70
9446;DHT22;4761;49.490;10.908;2022-11-15T14:56:35;18.10;45.70
9446;DHT22;4761;49.490;10.908;2022-11-15T14:59:01;18.10;45.70
9446;DHT22;4761;49.490;10.908;2022-11-15T15:01:26;18.10;45.70
9446;DHT22;4761;49.490;10.908;2022-11-15T15:03:53;18.10;45.80
9446;DHT22;4761;49.490;10.908;2022-11-15T15:06:22;18.10;45.90
9446;DHT22;4761;49.490;10.908;2022-11-15T15:08:47;18.10;45.90
9446;DHT22;4761;49.490;10.908;2022-11-15T15:11:30;18.10;45.80
9446;DHT22;4761;49.490;10.908;2022-11-15T15:13:56;18.10;45.90
9446;DHT22;4761;49.490;10.908;2022-11-15T15:16:24;18.10;46.00
9446;DHT22;4761;49.490;10.908;2022-11-15T15:18:50;18.10;46.00
9446;DHT22;4761;49.490;10.908;2022-11-15T15:21:27;18.10;46.00
9446;DHT22;4761;49.490;10.908;2022-11-15T15:23:53;18.10;46.20
9446;DHT22;4761;49.490;10.908;2022-11-15T15:26:19;18.10;46.20
9446;DHT22;4761;49.490;10.908;2022-11-15T15:28:45;18.20;46.30
9446;DHT22;4761;49.490;10.908;2022-11-15T15:31:10;18.10;46.20
9446;DHT22;4761;49.490;10.908;2022-11-15T15:33:37;18.20;46.30
9446;DHT22;4761;49.490;10.908;2022-11-15T15:36:03;18.20;46.40
9446;DHT22;4761;49.490;10.908;2022-11-15T15:38:28;18.20;46.50
9446;DHT22;4761;49.490;10.908;2022-11-15T15:40:54;18.10;46.50
9446;DHT22;4761;49.490;10.908;2022-11-15T15:43:20;18.10;46.70
9446;DHT22;4761;49.490;10.908;2022-11-15T15:45:45;18.10;46.80
9446;DHT22;4761;49.490;10.908;2022-11-15T15:48:13;18.10;47.00
9446;DHT22;4761;49.490;10.908;2022-11-15T15:50:39;18.10;47.00
9446;DHT22;4761;49.490;10.908;2022-11-15T15:53:05;18.00;47.10
9446;DHT22;4761;49.490;10.908;2022-11-15T15:55:31;18.00;47.20
9446;DHT22;4761;49.490;10.908;2022-11-15T15:57:57;18.00;47.30
9446;DHT22;4761;49.490;10.908;2022-11-15T16:00:24;18.00;47.40
9446;DHT22;4761;49.490;10.908;2022-11-15T16:02:50;18.00;47.40
9446;DHT22;4761;49.490;10.908;2022-11-15T16:05:16;18.00;47.40
9446;DHT22;4761;49.490;10.908;2022-11-15T16:07:43;18.00;47.40
9446;DHT22;4761;49.490;10.908;2022-11-15T16:10:27;18.00;47.40
9446;DHT22;4761;49.490;10.908;2022-11-15T16:12:53;18.00;47.50
9446;DHT22;4761;49.490;10.908;2022-11-15T16:15:21;18.00;47.60
9446;DHT22;4761;49.490;10.908;2022-11-15T16:17:52;18.00;47.70
9446;DHT22;4761;49.490;10.908;2022-11-15T16:20:35;17.90;47.70
9446;DHT22;4761;49.490;10.908;2022-11-15T16:23:04;17.90;47.70
9446;DHT22;4761;49.490;10.908;2022-11-15T16:25:47;17.90;47.80
9446;DHT22;4761;49.490;10.908;2022-11-15T16:28:32;17.90;47.80
9446;DHT22;4761;49.490;10.908;2022-11-15T16:31:09;17.90;47.80
9446;DHT22;4761;49.490;10.908;2022-11-15T16:33:35;17.90;47.80
9446;DHT22;4761;49.490;10.908;2022-11-15T16:36:01;17.90;47.80
9446;DHT22;4761;49.490;10.908;2022-11-15T16:38:27;17.90;47.90
9446;DHT22;4761;49.490;10.908;2022-11-15T16:40:53;17.90;48.00
9446;DHT22;4761;49.490;10.908;2022-11-15T16:43:19;17.90;48.00
9446;DHT22;4761;49.490;10.908;2022-11-15T16:45:44;17.90;48.00
9446;DHT22;4761;49.490;10.908;2022-11-15T16:48:23;17.90;48.00
9446;DHT22;4761;49.490;10.908;2022-11-15T16:50:50;17.80;47.90
9446;DHT22;4761;49.490;10.908;2022-11-15T16:53:18;17.80;48.00
9446;DHT22;4761;49.490;10.908;2022-11-15T16:55:44;17.80;47.90
9446;DHT22;4761;49.490;10.908;2022-11-15T16:58:09;17.80;48.00
9446;DHT22;4761;49.490;10.908;2022-11-15T17:00:35;17.80;48.00
9446;DHT22;4761;49.490;10.908;2022-11-15T17:03:01;17.80;48.10
9446;DHT22;4761;49.490;10.908;2022-11-15T17:05:28;17.80;48.10
9446;DHT22;4761;49.490;10.908;2022-11-15T17:07:55;17.80;48.20
9446;DHT22;4761;49.490;10.908;2022-11-15T17:10:22;17.80;48.20
9446;DHT22;4761;49.490;10.908;2022-11-15T17:12:48;17.80;48.30
9446;DHT22;4761;49.490;10.908;2022-11-15T17:15:14;17.90;48.40
9446;DHT22;4761;49.490;10.908;2022-11-15T17:17:40;17.90;48.40
9446;DHT22;4761;49.490;10.908;2022-11-15T17:20:13;17.80;48.40
9446;DHT22;4761;49.490;10.908;2022-11-15T17:22:39;17.90;48.40
9446;DHT22;4761;49.490;10.908;2022-11-15T17:25:04;17.80;48.30
9446;DHT22;4761;49.490;10.908;2022-11-15T17:27:30;17.80;48.20
9446;DHT22;4761;49.490;10.908;2022-11-15T17:29:56;17.80;48.20
9446;DHT22;4761;49.490;10.908;2022-11-15T17:32:21;17.80;48.10
9446;DHT22;4761;49.490;10.908;2022-11-15T17:34:47;17.80;48.10
9446;DHT22;4761;49.490;10.908;2022-11-15T17:37:12;17.80;48.10
9446;DHT22;4761;49.490;10.908;2022-11-15T17:39:38;17.80;48.00
9446;DHT22;4761;49.490;10.908;2022-11-15T17:42:03;17.80;48.00
9446;DHT22;4761;49.490;10.908;2022-11-15T17:44:29;17.80;48.00
9446;DHT22;4761;49.490;10.908;2022-11-15T17:46:55;17.80;47.90
9446;DHT22;4761;49.490;10.908;2022-11-15T17:49:20;17.80;47.90
9446;DHT22;4761;49.490;10.908;2022-11-15T17:51:46;17.80;48.00
9446;DHT22;4761;49.490;10.908;2022-11-15T17:54:11;17.80;47.90
9446;DHT22;4761;49.490;10.908;2022-11-15T17:56:39;17.80;48.30